createdAt,value
2022-12-11T00:02:03.079Z,93635.95
2022-12-11T00:04:31.968Z,93630.30
2022-12-11T00:06:59.991Z,93623.05
2022-12-11T00:09:28.141Z,93614.66
2022-12-11T00:11:56.684Z,93612.61
2022-12-11T00:14:24.769Z,93612.41
2022-12-11T00:16:52.796Z,93611.83
2022-12-11T00:19:20.909Z,93600.86
2022-12-11T00:21:48.866Z,93591.10
2022-12-11T00:24:16.910Z,93587.06
2022-12-11T00:26:45.209Z,93589.89
2022-12-11T00:29:16.046Z,93588.19
2022-12-11T00:31:44.805Z,93581.45
2022-12-11T00:34:13.137Z,93569.85
2022-12-11T00:36:41.194Z,93577.52
2022-12-11T00:39:09.284Z,93583.79
2022-12-11T00:41:37.375Z,93581.77
2022-12-11T00:44:07.647Z,93581.27
2022-12-11T00:46:36.319Z,93577.67
2022-12-11T00:49:04.566Z,93575.02
2022-12-11T00:51:33.328Z,93571.71
2022-12-11T00:54:02.074Z,93566.15
2022-12-11T00:56:30.792Z,93559.60
2022-12-11T00:59:02.330Z,93547.41
2022-12-11T01:01:41.513Z,93541.88
2022-12-11T01:04:23.625Z,93534.38
2022-12-11T01:06:51.738Z,93537.84
2022-12-11T01:09:38.331Z,93544.26
2022-12-11T01:12:06.492Z,93543.23
2022-12-11T01:14:34.615Z,93540.33
2022-12-11T01:17:02.803Z,93534.95
2022-12-11T01:19:31.120Z,93538.27
2022-12-11T01:21:59.253Z,93537.71
2022-12-11T01:24:27.303Z,93529.08
2022-12-11T01:26:55.348Z,93529.78
2022-12-11T01:29:23.395Z,93537.92
2022-12-11T01:31:51.298Z,93535.00
2022-12-11T01:34:19.207Z,93532.69
2022-12-11T01:36:47.157Z,93524.66
2022-12-11T01:39:15.085Z,93525.16
2022-12-11T01:41:43.010Z,93527.87
2022-12-11T01:44:13.982Z,93520.69
2022-12-11T01:46:43.355Z,93521.44
2022-12-11T01:49:14.163Z,93518.88
2022-12-11T01:51:52.020Z,93518.94
2022-12-11T01:54:24.771Z,93513.64
2022-12-11T01:56:56.319Z,93507.07
2022-12-11T01:59:28.910Z,93507.91
2022-12-11T02:02:06.297Z,93504.02
2022-12-11T02:04:38.086Z,93499.64
2022-12-11T02:07:06.592Z,93497.16
2022-12-11T02:09:37.708Z,93490.48
2022-12-11T02:12:36.235Z,93485.95
2022-12-11T02:15:25.804Z,93481.93
2022-12-11T02:18:07.991Z,93476.91
2022-12-11T02:21:01.563Z,93470.52
2022-12-11T02:23:50.950Z,93468.00
2022-12-11T02:26:51.334Z,93462.49
2022-12-11T02:29:43.710Z,93456.23
2022-12-11T02:32:30.397Z,93460.36
2022-12-11T02:35:06.325Z,93456.48
2022-12-11T02:37:37.818Z,93453.66
2022-12-11T02:40:11.530Z,93450.01
2022-12-11T02:42:42.554Z,93445.19
2022-12-11T02:45:12.607Z,93440.45
2022-12-11T02:47:43.564Z,93438.82
2022-12-11T02:50:15.387Z,93436.85
2022-12-11T02:52:45.779Z,93429.88
2022-12-11T02:55:16.168Z,93426.25
2022-12-11T02:58:04.910Z,93432.03
2022-12-11T03:04:41.099Z,93425.36
2022-12-11T03:07:17.329Z,93423.45
2022-12-11T03:09:48.630Z,93420.92
2022-12-11T03:12:22.209Z,93420.73
2022-12-11T03:15:04.204Z,93416.69
2022-12-11T03:18:06.597Z,93419.91
2022-12-11T03:20:41.290Z,93423.86
2022-12-11T03:23:37.939Z,93421.23
2022-12-11T03:26:12.843Z,93416.34
2022-12-11T03:29:11.642Z,93412.84
2022-12-11T03:31:57.854Z,93409.42
2022-12-11T03:34:39.662Z,93406.61
2022-12-11T03:37:09.024Z,93398.75
2022-12-11T03:39:55.690Z,93390.05
2022-12-11T03:42:25.130Z,93379.98
2022-12-11T03:44:55.434Z,93377.01
2022-12-11T03:47:26.032Z,93370.39
2022-12-11T03:49:56.471Z,93363.58
2022-12-11T03:52:27.713Z,93355.54
2022-12-11T03:54:59.749Z,93350.91
2022-12-11T03:57:33.879Z,93347.21
2022-12-11T04:00:05.068Z,93346.35
2022-12-11T04:02:40.974Z,93348.41
2022-12-11T04:05:12.161Z,93357.64
2022-12-11T04:07:43.072Z,93349.04
2022-12-11T04:10:11.053Z,93340.21
2022-12-11T04:12:38.981Z,93333.70
2022-12-11T04:15:07.253Z,93336.13
2022-12-11T04:17:55.411Z,93335.33
2022-12-11T04:20:41.997Z,93328.01
2022-12-11T04:23:36.777Z,93323.62
2022-12-11T04:26:26.284Z,93322.89
2022-12-11T04:31:36.410Z,93317.80
2022-12-11T04:34:04.846Z,93317.09
2022-12-11T04:36:32.902Z,93312.52
2022-12-11T04:39:01.095Z,93317.27
2022-12-11T04:41:29.232Z,93314.77
2022-12-11T04:43:57.178Z,93316.58
2022-12-11T04:46:33.337Z,93315.25
2022-12-11T04:49:01.385Z,93315.66
2022-12-11T04:51:29.821Z,93319.33
2022-12-11T04:53:58.780Z,93320.40
2022-12-11T04:56:26.961Z,93322.55
2022-12-11T04:58:55.175Z,93324.48
2022-12-11T05:01:23.495Z,93320.31
2022-12-11T05:11:03.441Z,93314.63
2022-12-11T05:13:41.501Z,93311.92
2022-12-11T05:16:16.885Z,93310.41
2022-12-11T05:18:45.126Z,93318.29
2022-12-11T05:21:15.121Z,93320.48
2022-12-11T05:23:43.341Z,93320.35
2022-12-11T05:26:29.407Z,93319.69
2022-12-11T05:37:36.647Z,93321.11
2022-12-11T05:40:06.557Z,93321.20
2022-12-11T05:42:38.905Z,93321.61
2022-12-11T05:45:07.218Z,93324.92
2022-12-11T05:47:35.223Z,93329.78
2022-12-11T05:50:03.440Z,93330.09
2022-12-11T05:52:31.981Z,93325.28
2022-12-11T05:55:00.167Z,93331.55
2022-12-11T05:57:31.449Z,93325.30
2022-12-11T05:59:59.890Z,93325.36
2022-12-11T06:02:27.957Z,93326.48
2022-12-11T06:04:56.333Z,93329.27
2022-12-11T06:07:25.460Z,93337.31
2022-12-11T06:09:53.574Z,93339.23
2022-12-11T06:12:21.632Z,93343.66
2022-12-11T06:14:49.536Z,93347.40
2022-12-11T06:17:17.581Z,93350.16
2022-12-11T06:19:45.936Z,93348.95
2022-12-11T06:22:13.924Z,93348.93
2022-12-11T06:24:41.834Z,93356.09
2022-12-11T06:27:10.159Z,93360.14
2022-12-11T06:29:38.052Z,93369.69
2022-12-11T06:32:06.280Z,93375.95
2022-12-11T06:34:34.212Z,93380.88
2022-12-11T06:37:02.189Z,93382.45
2022-12-11T06:39:30.166Z,93382.11
2022-12-11T06:41:58.064Z,93382.27
2022-12-11T06:44:26.097Z,93385.60
2022-12-11T06:46:53.997Z,93393.88
2022-12-11T06:49:22.162Z,93402.23
2022-12-11T06:51:50.150Z,93408.88
2022-12-11T06:54:18.185Z,93410.29
2022-12-11T06:56:46.335Z,93408.08
2022-12-11T06:59:14.331Z,93399.19
2022-12-11T07:01:42.270Z,93402.77
2022-12-11T07:04:10.423Z,93397.08
2022-12-11T07:06:38.495Z,93399.42
2022-12-11T07:09:06.846Z,93402.66
2022-12-11T07:11:37.703Z,93407.20
2022-12-11T07:14:05.623Z,93411.69
2022-12-11T07:16:33.486Z,93412.99
2022-12-11T07:19:01.505Z,93419.60
2022-12-11T07:21:29.670Z,93425.14
2022-12-11T07:23:57.749Z,93435.70
2022-12-11T07:26:25.900Z,93441.64
2022-12-11T07:28:57.659Z,93443.74
2022-12-11T07:31:28.188Z,93439.98
2022-12-11T07:33:59.211Z,93448.77
2022-12-11T07:36:28.589Z,93463.67
2022-12-11T07:38:56.747Z,93471.34
2022-12-11T07:41:24.866Z,93464.91
2022-12-11T07:43:56.177Z,93467.34
2022-12-11T07:46:27.128Z,93474.13
2022-12-11T07:48:55.440Z,93481.81
2022-12-11T07:51:29.333Z,93491.57
2022-12-11T07:53:59.624Z,93503.81
2022-12-11T07:56:28.721Z,93516.80
2022-12-11T07:58:58.886Z,93525.48
2022-12-11T08:01:28.717Z,93531.56
2022-12-11T08:03:57.258Z,93542.08
2022-12-11T08:06:30.836Z,93546.21
2022-12-11T08:09:00.475Z,93553.64
2022-12-11T08:11:28.588Z,93565.58
2022-12-11T08:13:59.206Z,93569.37
2022-12-11T08:16:27.565Z,93576.05
2022-12-11T08:18:55.753Z,93586.43
2022-12-11T08:21:26.849Z,93596.02
2022-12-11T08:23:55.383Z,93603.52
2022-12-11T08:26:26.808Z,93616.75
2022-12-11T08:28:55.483Z,93637.05
2022-12-11T08:31:24.144Z,93646.11
2022-12-11T08:33:52.981Z,93654.75
2022-12-11T08:36:22.990Z,93664.64
2022-12-11T08:38:52.112Z,93664.71
2022-12-11T08:41:23.146Z,93656.52
2022-12-11T08:43:55.332Z,93656.02
2022-12-11T08:46:25.780Z,93656.85
2022-12-11T08:48:55.153Z,93659.63
2022-12-11T08:51:25.987Z,93665.27
2022-12-11T08:53:59.167Z,93666.42
2022-12-11T08:56:28.397Z,93669.81
2022-12-11T08:58:59.068Z,93676.96
2022-12-11T09:01:28.024Z,93684.81
2022-12-11T09:03:56.964Z,93695.31
2022-12-11T09:06:27.495Z,93705.98
2022-12-11T09:08:56.522Z,93707.38
2022-12-11T09:11:27.826Z,93708.84
2022-12-11T09:13:56.415Z,93723.14
2022-12-11T09:16:25.811Z,93737.69
2022-12-11T09:18:56.615Z,93751.48
2022-12-11T09:21:28.543Z,93760.06
2022-12-11T09:23:59.819Z,93763.39
2022-12-11T09:26:30.294Z,93754.52
2022-12-11T09:28:58.701Z,93750.36
2022-12-11T09:31:29.687Z,93752.81
2022-12-11T09:34:00.920Z,93752.46
2022-12-11T09:36:29.770Z,93760.41
2022-12-11T09:39:03.613Z,93764.75
2022-12-11T09:41:47.146Z,93763.11
2022-12-11T09:44:20.668Z,93770.23
2022-12-11T09:46:50.205Z,93775.52
2022-12-11T09:49:43.940Z,93772.96
2022-12-11T09:52:17.944Z,93769.05
2022-12-11T09:54:59.450Z,93782.91
2022-12-11T09:57:45.795Z,93813.00
2022-12-11T10:00:19.664Z,93834.43
2022-12-11T10:03:15.704Z,93839.23
2022-12-11T10:06:17.270Z,93835.96
2022-12-11T10:08:49.455Z,93826.16
2022-12-11T10:11:20.487Z,93820.09
2022-12-11T10:14:32.873Z,93826.05
2022-12-11T10:17:34.025Z,93829.31
2022-12-11T10:20:39.165Z,93838.55
2022-12-11T10:23:09.739Z,93842.63
2022-12-11T10:25:42.976Z,93838.75
2022-12-11T10:28:16.233Z,93840.36
2022-12-11T10:31:06.880Z,93842.45
2022-12-11T10:33:41.445Z,93843.13
2022-12-11T10:36:12.464Z,93839.85
2022-12-11T10:38:45.547Z,93851.41
2022-12-11T10:41:16.747Z,93864.36
2022-12-11T10:43:48.644Z,93870.08
2022-12-11T10:46:22.071Z,93872.53
2022-12-11T10:48:59.611Z,93875.76
2022-12-11T10:51:30.615Z,93873.42
2022-12-11T10:54:24.872Z,93866.94
2022-12-11T10:56:54.359Z,93864.57
2022-12-11T10:59:34.506Z,93867.30
2022-12-11T11:02:04.078Z,93876.38
2022-12-11T11:04:41.716Z,93886.27
2022-12-11T11:07:14.065Z,93904.80
2022-12-11T11:09:41.966Z,93922.08
2022-12-11T11:12:47.114Z,93933.29
2022-12-11T11:15:27.187Z,93932.79
2022-12-11T11:17:57.594Z,93937.69
2022-12-11T11:20:31.207Z,93948.77
2022-12-11T11:23:11.543Z,93951.98
2022-12-11T11:25:40.386Z,93963.67
2022-12-11T11:28:21.185Z,93973.08
2022-12-11T11:31:16.738Z,93973.02
2022-12-11T11:33:47.138Z,93970.52
2022-12-11T11:36:22.197Z,93978.70
2022-12-11T11:39:02.998Z,93975.03
2022-12-11T11:41:41.644Z,93974.91
2022-12-11T11:44:15.584Z,93979.96
2022-12-11T11:46:53.851Z,93994.66
2022-12-11T11:49:36.106Z,94009.34
2022-12-11T11:52:16.742Z,94015.55
2022-12-11T11:55:06.169Z,94017.67
2022-12-11T11:57:42.630Z,94023.05
2022-12-11T12:00:23.088Z,94026.41
2022-12-11T12:03:14.034Z,94030.80
2022-12-11T12:05:59.125Z,94017.27
2022-12-11T12:08:53.135Z,94007.99
2022-12-11T12:11:39.936Z,94008.77
2022-12-11T12:14:53.701Z,94010.23
2022-12-11T12:17:44.983Z,94013.41
2022-12-11T12:20:38.044Z,94021.05
2022-12-11T12:23:42.938Z,94027.42
2022-12-11T12:26:54.874Z,94034.02
2022-12-11T12:29:44.755Z,94035.45
2022-12-11T12:32:23.588Z,94049.17
2022-12-11T12:35:00.211Z,94059.58
2022-12-11T12:37:47.661Z,94060.45
2022-12-11T12:41:03.524Z,94064.00
2022-12-11T12:43:53.193Z,94069.59
2022-12-11T12:46:34.662Z,94071.91
2022-12-11T12:49:04.269Z,94071.70
2022-12-11T12:51:32.730Z,94068.65
2022-12-11T12:54:06.565Z,94074.10
2022-12-11T12:56:38.773Z,94078.17
2022-12-11T12:59:28.788Z,94082.68
2022-12-11T13:02:06.616Z,94085.77
2022-12-11T13:04:56.458Z,94085.90
2022-12-11T13:07:31.481Z,94087.59
2022-12-11T13:10:26.219Z,94093.91
2022-12-11T13:12:55.000Z,94092.36
2022-12-11T13:15:32.345Z,94098.07
2022-12-11T13:18:02.819Z,94105.36
2022-12-11T13:20:33.718Z,94110.91
2022-12-11T13:23:16.787Z,94113.83
2022-12-11T13:25:54.242Z,94114.19
2022-12-11T13:28:27.931Z,94118.09
2022-12-11T13:31:04.524Z,94120.27
2022-12-11T13:33:33.390Z,94122.01
2022-12-11T13:36:16.736Z,94117.10
2022-12-11T13:39:07.067Z,94116.37
2022-12-11T13:41:37.663Z,94120.89
2022-12-11T13:44:07.278Z,94124.95
2022-12-11T13:46:37.427Z,94134.85
2022-12-11T13:49:07.500Z,94130.74
2022-12-11T13:51:37.084Z,94133.06
2022-12-11T13:54:16.342Z,94136.81
2022-12-11T13:57:06.323Z,94138.95
2022-12-11T13:59:37.175Z,94135.58
2022-12-11T14:02:18.031Z,94144.78
2022-12-11T14:04:49.810Z,94143.79
2022-12-11T14:07:33.894Z,94139.04
2022-12-11T14:10:22.035Z,94129.33
2022-12-11T14:13:08.133Z,94126.83
2022-12-11T14:15:37.009Z,94131.78
2022-12-11T14:18:05.793Z,94140.20
2022-12-11T14:20:34.903Z,94143.78
2022-12-11T14:23:05.743Z,94151.23
2022-12-11T14:25:33.775Z,94154.41
2022-12-11T14:28:01.816Z,94154.30
2022-12-11T14:30:33.242Z,94157.55
2022-12-11T14:33:05.301Z,94162.20
2022-12-11T14:35:39.179Z,94174.25
2022-12-11T14:38:36.281Z,94180.96
2022-12-11T14:41:18.776Z,94185.88
2022-12-11T14:44:00.547Z,94190.18
2022-12-11T14:46:44.491Z,94191.61
2022-12-11T14:49:28.774Z,94201.09
2022-12-11T14:51:58.535Z,94210.58
2022-12-11T14:55:05.651Z,94217.77
2022-12-11T14:57:34.870Z,94221.25
2022-12-11T15:00:05.188Z,94223.98
2022-12-11T15:02:35.688Z,94225.36
2022-12-11T15:05:09.807Z,94219.56
2022-12-11T15:07:38.204Z,94225.84
2022-12-11T15:10:06.551Z,94223.12
2022-12-11T15:12:35.046Z,94228.20
2022-12-11T15:15:07.336Z,94233.26
2022-12-11T15:17:37.541Z,94236.77
2022-12-11T15:20:09.157Z,94239.60
2022-12-11T15:22:38.080Z,94240.70
2022-12-11T15:25:06.338Z,94243.55
2022-12-11T15:27:39.444Z,94248.26
2022-12-11T15:30:29.189Z,94247.30
2022-12-11T15:33:09.288Z,94252.02
2022-12-11T15:35:40.355Z,94255.02
2022-12-11T15:38:35.225Z,94255.27
2022-12-11T15:41:04.327Z,94258.67
2022-12-11T15:43:36.083Z,94256.80
2022-12-11T15:46:05.507Z,94259.98
2022-12-11T15:48:33.876Z,94264.63
2022-12-11T15:51:01.804Z,94267.73
2022-12-11T15:53:29.989Z,94264.34
2022-12-11T15:55:59.630Z,94268.30
2022-12-11T15:58:28.216Z,94270.13
2022-12-11T16:00:57.460Z,94271.50
2022-12-11T16:03:26.038Z,94269.11
2022-12-11T16:05:53.981Z,94266.44
2022-12-11T16:08:23.769Z,94268.54
2022-12-11T16:10:54.735Z,94270.30
2022-12-11T16:13:23.034Z,94272.88
2022-12-11T16:15:52.198Z,94272.45
2022-12-11T16:18:22.934Z,94274.36
2022-12-11T16:20:51.834Z,94277.09
2022-12-11T16:23:20.510Z,94277.54
2022-12-11T16:25:49.394Z,94277.49
2022-12-11T16:28:21.119Z,94273.06
2022-12-11T16:30:49.839Z,94277.20
2022-12-11T16:33:17.875Z,94278.30
2022-12-11T16:35:45.942Z,94279.96
2022-12-11T16:38:13.951Z,94287.11
2022-12-11T16:40:41.887Z,94290.16
2022-12-11T16:43:10.995Z,94287.77
2022-12-11T16:45:39.934Z,94286.98
2022-12-11T16:48:07.815Z,94283.46
2022-12-11T16:50:36.658Z,94279.09
2022-12-11T16:53:04.756Z,94272.77
2022-12-11T16:55:32.684Z,94272.27
2022-12-11T16:58:01.344Z,94275.85
2022-12-11T17:00:31.281Z,94277.67
2022-12-11T17:02:59.225Z,94282.40
2022-12-11T17:05:27.126Z,94286.80
2022-12-11T17:07:55.414Z,94290.98
2022-12-11T17:10:23.502Z,94300.22
2022-12-11T17:12:51.420Z,94303.37
2022-12-11T17:15:19.527Z,94305.55
2022-12-11T17:17:47.532Z,94315.13
2022-12-11T17:20:15.559Z,94315.69
2022-12-11T17:22:43.449Z,94316.42
2022-12-11T17:25:11.867Z,94321.48
2022-12-11T17:27:40.158Z,94325.64
2022-12-11T17:30:09.124Z,94327.20
2022-12-11T17:32:37.066Z,94331.18
2022-12-11T17:35:05.814Z,94338.69
2022-12-11T17:37:33.923Z,94343.72
2022-12-11T17:40:01.909Z,94349.98
2022-12-11T17:42:29.913Z,94356.38
2022-12-11T17:44:57.797Z,94358.23
2022-12-11T17:47:25.729Z,94353.87
2022-12-11T17:49:53.702Z,94357.44
2022-12-11T17:52:21.614Z,94355.74
2022-12-11T17:54:49.615Z,94357.16
2022-12-11T17:57:17.475Z,94355.48
2022-12-11T17:59:45.614Z,94356.17
2022-12-11T18:02:13.605Z,94362.18
2022-12-11T18:04:41.690Z,94362.66
2022-12-11T18:07:09.822Z,94363.40
2022-12-11T18:09:40.734Z,94371.57
2022-12-11T18:12:09.885Z,94379.36
2022-12-11T18:14:38.316Z,94376.34
2022-12-11T18:17:06.997Z,94374.37
2022-12-11T18:19:35.218Z,94377.66
2022-12-11T18:22:03.295Z,94381.36
2022-12-11T18:24:32.048Z,94385.17
2022-12-11T18:27:00.094Z,94387.38
2022-12-11T18:29:28.751Z,94389.06
2022-12-11T18:31:56.696Z,94391.48
2022-12-11T18:34:24.703Z,94399.59
2022-12-11T18:36:52.754Z,94406.99
2022-12-11T18:39:20.695Z,94408.67
2022-12-11T18:42:03.408Z,94406.58
2022-12-11T18:44:31.815Z,94408.06
2022-12-11T18:46:59.845Z,94410.18
2022-12-11T18:49:27.864Z,94413.59
2022-12-11T18:51:55.924Z,94419.27
2022-12-11T18:54:23.980Z,94423.98
2022-12-11T18:56:51.852Z,94421.23
2022-12-11T18:59:19.817Z,94412.64
2022-12-11T19:01:47.993Z,94410.65
2022-12-11T19:04:16.014Z,94408.77
2022-12-11T19:06:43.896Z,94401.25
2022-12-11T19:09:13.125Z,94402.48
2022-12-11T19:11:42.134Z,94404.48
2022-12-11T19:14:10.698Z,94414.41
2022-12-11T19:16:41.162Z,94422.85
2022-12-11T19:19:14.470Z,94426.71
2022-12-11T19:21:43.351Z,94429.77
2022-12-11T19:24:18.658Z,94432.36
2022-12-11T19:26:47.211Z,94444.02
2022-12-11T19:29:36.267Z,94458.58
2022-12-11T19:32:05.348Z,94460.11
2022-12-11T19:34:33.338Z,94466.48
2022-12-11T19:37:01.537Z,94472.10
2022-12-11T19:39:29.986Z,94472.60
2022-12-11T19:41:57.970Z,94470.25
2022-12-11T19:44:26.260Z,94475.05
2022-12-11T19:46:54.294Z,94470.58
2022-12-11T19:49:22.374Z,94462.98
2022-12-11T19:51:52.784Z,94457.81
2022-12-11T19:54:21.013Z,94463.60
2022-12-11T19:57:39.609Z,94463.58
2022-12-11T20:00:11.130Z,94455.60
2022-12-11T20:02:49.243Z,94447.69
2022-12-11T20:05:18.183Z,94445.46
2022-12-11T20:07:46.485Z,94442.00
2022-12-11T20:10:15.791Z,94445.95
2022-12-11T20:12:44.199Z,94451.07
2022-12-11T20:15:12.642Z,94443.71
2022-12-11T20:17:47.589Z,94445.56
2022-12-11T20:21:35.056Z,94456.81
2022-12-11T20:24:55.557Z,94464.63
2022-12-11T20:27:49.598Z,94465.08
2022-12-11T20:30:25.973Z,94467.83
2022-12-11T20:33:23.426Z,94471.85
2022-12-11T20:37:01.337Z,94471.01
2022-12-11T20:44:21.902Z,94473.98
2022-12-11T20:46:51.161Z,94474.38
2022-12-11T20:49:23.028Z,94468.30
2022-12-11T20:51:52.267Z,94472.48
2022-12-11T20:54:24.490Z,94481.03
2022-12-11T20:56:55.631Z,94493.47
2022-12-11T21:03:42.032Z,94501.17
2022-12-11T21:06:56.176Z,94496.19
2022-12-11T21:13:19.748Z,94504.84
2022-12-11T21:15:56.492Z,94499.27
2022-12-11T21:18:28.231Z,94494.86
2022-12-11T21:21:04.933Z,94494.88
2022-12-11T21:28:35.483Z,94493.88
2022-12-11T21:40:54.198Z,94500.25
2022-12-11T22:12:16.899Z,94492.48
2022-12-11T22:35:06.018Z,94483.70
2022-12-11T22:37:52.641Z,94487.92
2022-12-11T22:40:22.330Z,94481.61
2022-12-11T22:47:00.685Z,94482.17
2022-12-11T22:49:28.861Z,94481.50
2022-12-11T22:51:57.865Z,94484.34
2022-12-11T22:54:25.972Z,94494.27
2022-12-11T22:56:56.026Z,94498.09
2022-12-11T22:59:26.710Z,94502.45
2022-12-11T23:02:37.238Z,94504.42
2022-12-11T23:05:45.549Z,94517.46
2022-12-11T23:08:13.751Z,94518.02
2022-12-11T23:10:42.821Z,94518.73
2022-12-11T23:13:14.845Z,94519.33
2022-12-11T23:16:11.581Z,94512.08
2022-12-11T23:19:11.476Z,94510.14
2022-12-11T23:21:40.791Z,94512.39
2022-12-11T23:24:48.096Z,94518.40
2022-12-11T23:32:45.843Z,94548.75
2022-12-11T23:35:14.207Z,94554.42
2022-12-11T23:37:42.726Z,94552.20
2022-12-11T23:40:18.059Z,94553.84
2022-12-11T23:42:51.608Z,94550.23
2022-12-11T23:45:21.199Z,94547.00
2022-12-11T23:47:49.812Z,94548.41
2022-12-11T23:50:18.895Z,94555.76
2022-12-11T23:52:49.145Z,94558.80
2022-12-11T23:59:28.516Z,94554.05
